createdAt,value
2024-05-09T00:01:56.370Z,9.20
2024-05-09T00:04:58.595Z,8.57
2024-05-09T00:08:00.810Z,7.37
2024-05-09T00:11:03.136Z,8.27
2024-05-09T00:14:05.432Z,7.55
2024-05-09T00:17:07.787Z,7.22
2024-05-09T00:20:17.497Z,4.25
2024-05-09T00:23:22.883Z,3.03
2024-05-09T00:26:25.135Z,2.30
2024-05-09T00:29:27.573Z,2.33
2024-05-09T00:32:29.883Z,1.95
2024-05-09T00:35:32.229Z,1.70
2024-05-09T00:38:34.527Z,2.23
2024-05-09T00:41:36.760Z,2.00
2024-05-09T00:44:38.968Z,1.95
2024-05-09T00:47:42.685Z,1.90
2024-05-09T00:50:45.111Z,2.03
2024-05-09T00:53:47.419Z,1.70
2024-05-09T00:56:49.568Z,1.63
2024-05-09T00:59:51.774Z,2.35
2024-05-09T01:02:53.971Z,1.98
2024-05-09T01:05:56.155Z,1.70
2024-05-09T01:08:58.204Z,1.97
2024-05-09T01:12:00.529Z,2.00
2024-05-09T01:15:04.272Z,1.60
2024-05-09T01:18:13.682Z,1.30
2024-05-09T01:21:16.297Z,1.10
2024-05-09T01:24:18.489Z,1.13
2024-05-09T01:27:20.810Z,1.42
2024-05-09T01:30:31.262Z,1.38
2024-05-09T01:33:36.411Z,1.48
2024-05-09T01:36:38.645Z,1.55
2024-05-09T01:39:40.710Z,1.20
2024-05-09T01:42:42.837Z,1.05
2024-05-09T01:45:44.952Z,1.50
2024-05-09T01:48:47.155Z,1.50
2024-05-09T01:51:49.286Z,1.30
2024-05-09T01:54:51.377Z,1.30
2024-05-09T01:57:53.454Z,1.17
2024-05-09T02:00:55.600Z,1.23
2024-05-09T02:03:57.847Z,1.30
2024-05-09T02:07:00.011Z,1.45
2024-05-09T02:10:04.974Z,1.20
2024-05-09T02:13:08.703Z,0.95
2024-05-09T02:16:12.404Z,1.30
2024-05-09T02:19:14.612Z,1.08
2024-05-09T02:22:16.998Z,1.23
2024-05-09T02:25:20.405Z,1.30
2024-05-09T02:28:22.510Z,0.93
2024-05-09T02:31:24.572Z,1.15
2024-05-09T02:34:26.818Z,1.48
2024-05-09T02:37:28.985Z,1.02
2024-05-09T02:40:37.405Z,1.30
2024-05-09T02:43:41.246Z,1.25
2024-05-09T02:46:43.488Z,1.27
2024-05-09T02:49:45.589Z,1.50
2024-05-09T02:52:47.836Z,1.10
2024-05-09T02:55:49.978Z,1.03
2024-05-09T02:58:52.249Z,1.00
2024-05-09T03:01:54.384Z,1.30
2024-05-09T03:04:56.690Z,1.10
2024-05-09T03:07:58.848Z,1.02
2024-05-09T03:11:01.039Z,1.20
2024-05-09T03:14:03.228Z,1.40
2024-05-09T03:17:05.578Z,1.23
2024-05-09T03:20:17.301Z,1.38
2024-05-09T03:23:25.612Z,1.23
2024-05-09T03:26:27.857Z,1.00
2024-05-09T03:29:30.148Z,1.20
2024-05-09T03:32:32.398Z,1.25
2024-05-09T03:35:34.687Z,0.73
2024-05-09T03:38:37.361Z,1.50
2024-05-09T03:41:39.593Z,1.13
2024-05-09T03:44:41.764Z,1.08
2024-05-09T03:47:44.233Z,1.35
2024-05-09T03:50:46.671Z,1.10
2024-05-09T03:53:48.879Z,1.27
2024-05-09T03:56:51.445Z,1.80
2024-05-09T03:59:53.601Z,1.40
2024-05-09T04:02:55.790Z,1.67
2024-05-09T04:05:57.989Z,1.00
2024-05-09T04:09:00.167Z,1.42
2024-05-09T04:12:02.530Z,1.10
2024-05-09T04:15:04.777Z,1.42
2024-05-09T04:18:07.325Z,1.65
2024-05-09T04:21:09.737Z,1.10
2024-05-09T04:24:11.964Z,0.95
2024-05-09T04:27:14.055Z,1.17
2024-05-09T04:30:25.406Z,1.40
2024-05-09T04:33:33.174Z,1.58
2024-05-09T04:36:35.421Z,1.25
2024-05-09T04:39:37.502Z,1.25
2024-05-09T04:42:42.693Z,1.30
2024-05-09T04:45:45.000Z,1.17
2024-05-09T04:48:47.129Z,1.13
2024-05-09T04:51:49.522Z,1.40
2024-05-09T04:54:52.013Z,1.40
2024-05-09T04:57:54.758Z,1.20
2024-05-09T05:00:59.056Z,1.15
2024-05-09T05:04:01.806Z,1.30
2024-05-09T05:07:04.121Z,0.98
2024-05-09T05:10:09.330Z,0.80
2024-05-09T05:13:18.393Z,1.10
2024-05-09T05:16:21.392Z,1.10
2024-05-09T05:19:23.553Z,1.00
2024-05-09T05:22:25.947Z,1.45
2024-05-09T05:25:28.160Z,1.15
2024-05-09T05:28:30.273Z,1.53
2024-05-09T05:31:32.419Z,1.13
2024-05-09T05:34:34.650Z,0.93
2024-05-09T05:37:36.881Z,1.00
2024-05-09T05:40:40.231Z,1.35
2024-05-09T05:43:43.251Z,1.40
2024-05-09T05:46:45.486Z,1.20
2024-05-09T05:49:47.722Z,1.42
2024-05-09T05:52:49.983Z,1.00
2024-05-09T05:55:52.244Z,0.98
2024-05-09T05:58:54.475Z,1.40
2024-05-09T06:01:56.813Z,1.25
2024-05-09T06:05:00.252Z,1.27
2024-05-09T06:08:02.656Z,1.23
2024-05-09T06:11:05.006Z,1.58
2024-05-09T06:14:07.430Z,1.17
2024-05-09T06:17:09.714Z,1.25
2024-05-09T06:20:20.234Z,1.70
2024-05-09T06:23:26.748Z,1.40
2024-05-09T06:26:29.278Z,1.20
2024-05-09T06:29:31.689Z,1.40
2024-05-09T06:32:34.243Z,1.20
2024-05-09T06:35:36.791Z,2.00
2024-05-09T06:38:39.558Z,1.02
2024-05-09T06:41:41.798Z,1.35
2024-05-09T06:44:44.100Z,1.40
2024-05-09T06:47:46.426Z,1.67
2024-05-09T06:50:48.729Z,0.77
2024-05-09T06:53:50.914Z,1.05
2024-05-09T06:56:53.085Z,1.10
2024-05-09T06:59:59.718Z,1.00
2024-05-09T07:03:05.478Z,1.00
2024-05-09T07:06:08.813Z,1.52
2024-05-09T07:09:11.833Z,0.82
2024-05-09T07:12:14.302Z,0.95
2024-05-09T07:15:20.802Z,0.93
2024-05-09T07:18:26.287Z,1.10
2024-05-09T07:21:28.775Z,1.23
2024-05-09T07:24:31.015Z,0.77
2024-05-09T07:27:33.202Z,0.80
2024-05-09T07:30:35.539Z,0.80
2024-05-09T07:33:38.631Z,1.10
2024-05-09T07:36:43.103Z,0.95
2024-05-09T07:39:47.282Z,1.13
2024-05-09T07:42:49.621Z,1.67
2024-05-09T07:45:54.475Z,0.80
2024-05-09T07:50:53.483Z,0.68
2024-05-09T07:53:33.149Z,1.20
2024-05-09T07:55:56.806Z,1.30
2024-05-09T07:58:59.176Z,0.98
2024-05-09T08:02:01.409Z,1.00
2024-05-09T08:05:03.707Z,1.25
2024-05-09T08:08:06.120Z,1.10
2024-05-09T08:11:08.348Z,1.17
2024-05-09T08:14:10.609Z,0.85
2024-05-09T08:17:12.789Z,0.83
2024-05-09T08:20:22.879Z,1.30
2024-05-09T08:23:33.205Z,1.23
2024-05-09T08:26:35.527Z,1.10
2024-05-09T08:29:37.835Z,1.20
2024-05-09T08:32:41.226Z,0.97
2024-05-09T08:35:46.946Z,0.88
2024-05-09T08:38:49.123Z,1.35
2024-05-09T08:41:59.800Z,0.98
2024-05-09T08:45:01.960Z,1.15
2024-05-09T08:48:07.075Z,1.43
2024-05-09T08:51:09.345Z,1.40
2024-05-09T08:54:11.532Z,1.98
2024-05-09T08:57:16.039Z,1.10
2024-05-09T09:00:28.958Z,1.13
2024-05-09T09:03:36.336Z,1.07
2024-05-09T09:06:38.792Z,1.10
2024-05-09T09:09:43.659Z,1.50
2024-05-09T09:12:46.265Z,1.35
2024-05-09T09:15:48.677Z,1.40
2024-05-09T09:18:51.375Z,1.77
2024-05-09T09:21:53.613Z,1.50
2024-05-09T09:24:56.114Z,1.40
2024-05-09T09:28:03.563Z,1.00
2024-05-09T09:31:05.953Z,1.27
2024-05-09T09:34:08.632Z,1.17
2024-05-09T09:37:11.294Z,1.20
2024-05-09T09:40:15.597Z,6.43
2024-05-09T09:43:21.065Z,1.00
2024-05-09T09:46:23.658Z,1.92
2024-05-09T09:49:36.783Z,0.93
2024-05-09T09:52:38.980Z,1.15
2024-05-09T09:55:41.145Z,1.00
2024-05-09T09:58:43.577Z,1.10
2024-05-09T10:01:45.847Z,0.90
2024-05-09T10:04:48.311Z,0.80
2024-05-09T10:07:50.516Z,0.95
2024-05-09T10:10:53.504Z,1.05
2024-05-09T10:13:56.769Z,0.70
2024-05-09T10:17:05.197Z,0.90
2024-05-09T10:20:14.801Z,0.90
2024-05-09T10:23:45.928Z,0.90
2024-05-09T10:26:51.347Z,0.77
2024-05-09T10:29:54.065Z,1.00
2024-05-09T10:32:56.381Z,0.80
2024-05-09T10:36:02.671Z,1.00
2024-05-09T10:39:05.461Z,0.90
2024-05-09T10:42:09.860Z,1.00
2024-05-09T10:45:11.963Z,1.20
2024-05-09T10:48:14.407Z,1.17
2024-05-09T10:51:16.876Z,1.10
2024-05-09T10:54:19.118Z,1.15
2024-05-09T10:57:21.978Z,1.10
2024-05-09T11:00:33.811Z,1.00
2024-05-09T11:03:40.890Z,1.30
2024-05-09T11:06:54.233Z,1.03
2024-05-09T11:10:33.359Z,0.90
2024-05-09T11:13:46.940Z,1.15
2024-05-09T11:16:59.422Z,0.90
2024-05-09T11:20:13.721Z,1.17
2024-05-09T11:23:27.553Z,1.13
2024-05-09T11:26:31.214Z,1.20
2024-05-09T11:29:37.189Z,1.02
2024-05-09T11:32:39.703Z,1.17
2024-05-09T11:35:42.342Z,1.48
2024-05-09T11:38:51.228Z,1.00
2024-05-09T11:41:53.299Z,1.70
2024-05-09T11:44:55.423Z,1.30
2024-05-09T11:47:57.682Z,1.30
2024-05-09T11:51:00.214Z,1.02
2024-05-09T11:54:05.028Z,1.27
2024-05-09T11:57:07.426Z,1.00
2024-05-09T12:00:14.807Z,1.00
2024-05-09T12:03:20.868Z,0.90
2024-05-09T12:06:23.179Z,0.75
2024-05-09T12:09:25.548Z,1.00
2024-05-09T12:12:28.466Z,1.10
2024-05-09T12:15:30.814Z,1.30
2024-05-09T12:18:34.121Z,0.88
2024-05-09T12:21:36.581Z,0.90
2024-05-09T12:24:38.816Z,1.40
2024-05-09T12:27:41.078Z,0.60
2024-05-09T12:30:43.607Z,0.77
2024-05-09T12:33:45.931Z,1.00
2024-05-09T12:36:48.233Z,0.80
2024-05-09T12:39:51.109Z,0.70
2024-05-09T12:42:53.778Z,0.77
2024-05-09T12:45:56.238Z,1.40
2024-05-09T12:48:58.841Z,1.10
2024-05-09T12:52:01.456Z,0.88
2024-05-09T12:55:03.964Z,0.63
2024-05-09T12:58:06.336Z,0.80
2024-05-09T13:01:08.634Z,1.00
2024-05-09T13:04:10.874Z,0.90
2024-05-09T13:07:13.335Z,0.70
2024-05-09T13:10:23.100Z,0.70
2024-05-09T13:13:31.299Z,1.05
2024-05-09T13:16:33.630Z,0.80
2024-05-09T13:19:35.874Z,0.80
2024-05-09T13:22:39.865Z,1.17
2024-05-09T13:25:42.079Z,0.70
2024-05-09T13:28:44.255Z,0.80
2024-05-09T13:31:46.383Z,1.00
2024-05-09T13:34:48.703Z,0.82
2024-05-09T13:37:52.971Z,0.95
2024-05-09T13:40:55.285Z,1.00
2024-05-09T13:43:57.467Z,0.88
2024-05-09T13:46:59.925Z,0.90
2024-05-09T13:50:16.953Z,1.05
2024-05-09T13:53:40.357Z,1.10
2024-05-09T13:56:53.399Z,0.90
2024-05-09T14:00:07.383Z,0.93
2024-05-09T14:03:22.151Z,1.10
2024-05-09T14:06:28.243Z,0.80
2024-05-09T14:09:37.199Z,1.17
2024-05-09T14:12:43.870Z,1.00
2024-05-09T14:15:46.527Z,0.90
2024-05-09T14:18:48.838Z,0.90
2024-05-09T14:21:54.324Z,0.80
2024-05-09T14:24:56.566Z,1.00
2024-05-09T14:27:58.933Z,1.00
2024-05-09T14:31:01.466Z,0.90
2024-05-09T14:34:03.874Z,1.00
2024-05-09T14:37:06.323Z,0.80
2024-05-09T14:40:14.758Z,0.68
2024-05-09T14:43:23.913Z,0.70
2024-05-09T14:46:26.279Z,0.77
2024-05-09T14:49:28.487Z,0.98
2024-05-09T14:52:30.607Z,0.90
2024-05-09T14:55:35.746Z,1.42
2024-05-09T14:58:39.187Z,0.80
2024-05-09T15:01:41.321Z,0.93
2024-05-09T15:04:43.776Z,1.00
2024-05-09T15:07:45.923Z,0.73
2024-05-09T15:10:50.120Z,1.10
2024-05-09T15:13:52.706Z,1.07
2024-05-09T15:16:54.820Z,1.00
2024-05-09T15:22:59.026Z,0.93
2024-05-09T15:26:01.087Z,0.82
2024-05-09T15:29:03.204Z,0.97
2024-05-09T15:32:05.494Z,1.02
2024-05-09T15:35:07.778Z,0.90
2024-05-09T15:38:10.207Z,0.90
2024-05-09T15:41:13.082Z,0.98
2024-05-09T15:44:15.227Z,1.03
2024-05-09T15:47:17.416Z,0.98
2024-05-09T15:50:28.310Z,0.88
2024-05-09T15:53:37.843Z,0.52
2024-05-09T15:56:40.778Z,0.60
2024-05-09T15:59:42.964Z,0.90
2024-05-09T16:02:45.242Z,0.73
2024-05-09T16:05:48.146Z,0.68
2024-05-09T16:08:50.653Z,0.60
2024-05-09T16:11:52.910Z,1.10
2024-05-09T16:14:55.085Z,0.83
2024-05-09T16:17:57.401Z,0.73
2024-05-09T16:21:00.349Z,0.70
2024-05-09T16:24:02.928Z,0.70
2024-05-09T16:27:05.688Z,0.80
2024-05-09T16:30:11.990Z,9.37
2024-05-09T16:33:23.715Z,1.10
2024-05-09T16:36:26.113Z,0.60
2024-05-09T16:39:28.269Z,0.63
2024-05-09T16:42:31.032Z,0.60
2024-05-09T16:45:33.437Z,0.63
2024-05-09T16:48:37.229Z,1.27
2024-05-09T16:51:39.475Z,0.90
2024-05-09T16:54:48.555Z,0.70
2024-05-09T16:57:51.007Z,0.68
2024-05-09T17:00:53.176Z,0.80
2024-05-09T17:03:55.633Z,0.70
2024-05-09T17:06:57.893Z,0.60
2024-05-09T17:10:00.072Z,0.80
2024-05-09T17:13:03.283Z,1.10
2024-05-09T17:16:07.808Z,0.90
2024-05-09T17:19:10.102Z,1.02
2024-05-09T17:22:12.621Z,0.70
2024-05-09T17:25:14.854Z,0.90
2024-05-09T17:28:17.113Z,0.80
2024-05-09T17:31:19.491Z,0.80
2024-05-09T17:34:21.799Z,0.80
2024-05-09T17:37:24.091Z,0.57
2024-05-09T17:40:32.615Z,0.63
2024-05-09T17:43:37.527Z,0.70
2024-05-09T17:46:39.737Z,0.80
2024-05-09T17:49:42.042Z,0.90
2024-05-09T17:52:44.316Z,1.00
2024-05-09T17:55:48.191Z,0.98
2024-05-09T17:58:50.427Z,1.10
2024-05-09T18:01:52.535Z,2.10
2024-05-09T18:04:55.021Z,1.00
2024-05-09T18:07:57.394Z,1.15
2024-05-09T18:10:59.720Z,1.00
2024-05-09T18:14:01.905Z,0.80
2024-05-09T18:17:04.448Z,0.80
2024-05-09T18:20:08.995Z,0.63
2024-05-09T18:23:11.298Z,1.05
2024-05-09T18:26:13.419Z,0.68
2024-05-09T18:29:17.212Z,0.90
2024-05-09T18:32:21.217Z,0.80
2024-05-09T18:35:23.272Z,1.10
2024-05-09T18:38:27.033Z,0.77
2024-05-09T18:41:29.164Z,1.05
2024-05-09T18:44:31.502Z,0.98
2024-05-09T18:47:33.916Z,1.27
2024-05-09T18:50:39.237Z,1.45
2024-05-09T18:53:44.991Z,1.10
2024-05-09T18:56:47.250Z,1.73
2024-05-09T18:59:49.304Z,1.15
2024-05-09T19:02:51.570Z,1.10
2024-05-09T19:05:53.932Z,1.13
2024-05-09T19:08:56.476Z,1.70
2024-05-09T19:12:03.206Z,1.45
2024-05-09T19:15:05.497Z,2.10
2024-05-09T19:18:08.017Z,1.83
2024-05-09T19:21:10.571Z,2.33
2024-05-09T19:24:12.708Z,1.95
2024-05-09T19:27:14.858Z,2.00
2024-05-09T19:30:25.717Z,1.90
2024-05-09T19:33:38.410Z,1.80
2024-05-09T19:36:40.556Z,1.77
2024-05-09T19:39:44.212Z,2.05
2024-05-09T19:42:47.490Z,1.83
2024-05-09T19:45:49.657Z,1.65
2024-05-09T19:48:51.917Z,2.60
2024-05-09T19:51:54.101Z,1.85
2024-05-09T19:54:56.286Z,2.20
2024-05-09T19:57:59.885Z,2.17
2024-05-09T20:01:03.267Z,2.20
2024-05-09T20:04:06.941Z,2.03
2024-05-09T20:07:09.511Z,2.10
2024-05-09T20:10:20.423Z,2.38
2024-05-09T20:13:26.123Z,2.17
2024-05-09T20:16:28.401Z,2.10
2024-05-09T20:19:30.612Z,1.60
2024-05-09T20:22:32.800Z,1.60
2024-05-09T20:25:34.919Z,2.10
2024-05-09T20:28:37.320Z,3.47
2024-05-09T20:31:41.280Z,3.83
2024-05-09T20:34:43.532Z,3.23
2024-05-09T20:37:45.703Z,2.70
2024-05-09T20:40:47.987Z,2.72
2024-05-09T20:43:50.432Z,2.65
2024-05-09T20:46:52.536Z,2.22
2024-05-09T20:49:54.632Z,2.13
2024-05-09T20:52:56.769Z,2.05
2024-05-09T20:55:58.869Z,2.22
2024-05-09T20:59:00.928Z,1.60
2024-05-09T21:02:03.215Z,1.55
2024-05-09T21:05:05.477Z,1.70
2024-05-09T21:08:08.025Z,1.83
2024-05-09T21:11:10.105Z,1.30
2024-05-09T21:14:12.242Z,1.77
2024-05-09T21:17:14.463Z,1.65
2024-05-09T21:20:20.645Z,1.57
2024-05-09T21:23:26.405Z,1.42
2024-05-09T21:26:29.590Z,1.73
2024-05-09T21:29:31.670Z,1.20
2024-05-09T21:32:33.847Z,1.60
2024-05-09T21:35:36.038Z,1.30
2024-05-09T21:38:40.124Z,1.55
2024-05-09T21:41:42.226Z,2.05
2024-05-09T21:44:44.281Z,1.27
2024-05-09T21:47:46.450Z,1.50
2024-05-09T21:50:48.635Z,1.50
2024-05-09T21:53:50.777Z,1.50
2024-05-09T21:56:52.815Z,1.70
2024-05-09T21:59:54.910Z,1.70
2024-05-09T22:02:57.919Z,1.80
2024-05-09T22:06:00.637Z,1.83
2024-05-09T22:09:05.134Z,1.35
2024-05-09T22:12:07.288Z,1.58
2024-05-09T22:15:09.521Z,1.55
2024-05-09T22:18:14.295Z,1.42
2024-05-09T22:21:16.469Z,1.57
2024-05-09T22:24:18.531Z,1.65
2024-05-09T22:27:20.689Z,1.58
2024-05-09T22:30:31.145Z,1.48
2024-05-09T22:33:37.423Z,1.25
2024-05-09T22:36:39.599Z,1.30
2024-05-09T22:39:41.919Z,1.77
2024-05-09T22:42:44.007Z,1.38
2024-05-09T22:45:46.532Z,1.17
2024-05-09T22:48:48.699Z,1.45
2024-05-09T22:51:50.886Z,1.33
2024-05-09T22:54:53.026Z,1.60
2024-05-09T22:57:55.476Z,1.65
2024-05-09T23:00:57.767Z,1.80
2024-05-09T23:04:00.216Z,1.27
2024-05-09T23:07:02.462Z,1.57
2024-05-09T23:10:10.840Z,1.88
2024-05-09T23:13:15.604Z,1.70
2024-05-09T23:16:17.843Z,1.90
2024-05-09T23:19:20.093Z,1.70
2024-05-09T23:22:22.344Z,1.70
2024-05-09T23:25:24.451Z,1.50
2024-05-09T23:28:26.734Z,1.73
2024-05-09T23:31:29.081Z,1.50
2024-05-09T23:34:31.458Z,1.48
2024-05-09T23:37:33.520Z,1.47
2024-05-09T23:40:39.590Z,1.33
2024-05-09T23:43:43.439Z,1.33
2024-05-09T23:46:45.705Z,1.40
2024-05-09T23:49:47.876Z,1.67
2024-05-09T23:52:50.077Z,1.80
2024-05-09T23:55:52.205Z,1.60
2024-05-09T23:58:54.301Z,1.80
